Airfield :
LOGIN :

Register | Disclaimer

   EN    FR    IT 

 










Legend :    VFR   Marginal VFR   IFR   Intensive IFR   Very Intensive IFR
Visi :
Ceiling :
>= 8 km
>= 3000ft
5 to 8 km
1000 to 3000 ft
1500m to 5 km
500 to 1000 ft
800 to 1500m
200 to 500 ft
< 800m
< 200 ft
Symbols :   Thunderstorms  Fog  Heavy snow  Heavy precipitations  Wind > 20 kt
SIGMETs :     Misc.  Thunderstorms  Icing  Turbulence  Mountain Waves  Volcanic Ashes







- Airport Elevation : 1411 ft
- IATA code : SZG


LOWS - Salzburg

CURRENT METAR :
  • 152220Z AUTO 18004KT 140V200 9999 NSC 16/13 Q1021

EXPIRED METARs :
  • 152150Z AUTO 17005KT 9999 NSC 16/13 Q1021
  • 152120Z AUTO 16005KT 9999 NSC 17/13 Q1021
  • 152050Z 15006KT CAVOK 17/14 Q1021 NOSIG
  • 152020Z 16006KT CAVOK 17/14 Q1021 NOSIG
  • 151950Z 15004KT 9999 FEW100 17/14 Q1021 NOSIG

TAF TAF LOWS
Valid from the 15 at 18:00 until the 16 at 18:00 UTC


151715Z 1518/1618 30005KT 9999 FEW050 SCT110 TX29/1614Z TN15/1603Z
BECMG 1518/1520 15007KT CAVOK
BECMG 1608/1610 34006KT 9999 FEW050
TEMPO 1611/1617 04008KT
No reported NOTAMs for that airfield.



MET'MAP, your aeronautical weather chart ! - Copyright ORBIFLY December 2007 - Disclaimer

ORBIFLY MET'MAP TEAM :

Programming & Development : Alexandra Zaïnal
Concept & Development : Baudouin d'Aumeries
Co-Development & Prog : Marc-Olivier Méhu
Technical & hardware support : Manuel Goepfert

Contact : metmap@orbifly.com




SOURCES & CREDITS :

   NOAA